createdAt,value
2018-10-11T00:01:48.703Z,25.97
2018-10-11T00:04:17.270Z,22.83
2018-10-11T00:06:45.833Z,22.13
2018-10-11T00:09:14.483Z,24.13
2018-10-11T00:11:43.073Z,22.97
2018-10-11T00:14:11.642Z,21.63
2018-10-11T00:16:40.803Z,20.63
2018-10-11T00:19:09.485Z,20.13
2018-10-11T00:21:38.553Z,24.33
2018-10-11T00:24:07.462Z,24.63
2018-10-11T00:26:36.100Z,23.67
2018-10-11T00:29:04.625Z,24.00
2018-10-11T00:31:33.211Z,25.53
2018-10-11T00:34:01.944Z,22.90
2018-10-11T00:36:30.499Z,23.00
2018-10-11T00:38:59.243Z,23.80
2018-10-11T00:41:27.777Z,27.60
2018-10-11T00:43:56.727Z,22.40
2018-10-11T00:46:25.640Z,23.17
2018-10-11T00:48:54.215Z,24.10
2018-10-11T00:51:22.699Z,22.70
2018-10-11T00:53:51.288Z,23.63
2018-10-11T00:56:19.947Z,24.73
2018-10-11T00:58:48.492Z,28.73
2018-10-11T01:01:17.037Z,23.97
2018-10-11T01:03:45.739Z,24.33
2018-10-11T01:06:14.236Z,25.60
2018-10-11T01:08:42.721Z,26.97
2018-10-11T01:11:11.436Z,23.33
2018-10-11T01:13:40.519Z,24.30
2018-10-11T01:16:09.134Z,28.40
2018-10-11T01:18:37.795Z,23.23
2018-10-11T01:21:06.922Z,23.83
2018-10-11T01:23:36.160Z,24.37
2018-10-11T01:26:04.783Z,23.43
2018-10-11T01:28:33.416Z,24.60
2018-10-11T01:31:07.089Z,24.33
2018-10-11T01:33:35.667Z,23.27
2018-10-11T01:36:04.422Z,27.20
2018-10-11T01:38:33.145Z,22.03
2018-10-11T01:41:01.700Z,23.30
2018-10-11T01:43:30.208Z,24.77
2018-10-11T01:45:58.787Z,23.60
2018-10-11T01:48:27.448Z,22.63
2018-10-11T01:50:56.005Z,24.00
2018-10-11T01:53:25.444Z,24.43
2018-10-11T01:55:53.984Z,24.80
2018-10-11T01:58:22.630Z,22.67
2018-10-11T02:00:51.117Z,23.33
2018-10-11T02:03:19.698Z,24.97
2018-10-11T02:05:48.211Z,22.87
2018-10-11T02:08:16.725Z,26.60
2018-10-11T02:10:45.459Z,28.17
2018-10-11T02:13:14.120Z,24.87
2018-10-11T02:15:42.617Z,25.63
2018-10-11T02:18:11.200Z,29.00
2018-10-11T02:20:39.764Z,22.50
2018-10-11T02:23:08.460Z,29.63
2018-10-11T02:25:37.192Z,24.37
2018-10-11T02:28:06.003Z,27.37
2018-10-11T02:30:34.738Z,26.70
2018-10-11T02:33:03.254Z,29.50
2018-10-11T02:35:31.784Z,26.10
2018-10-11T02:38:00.324Z,23.40
2018-10-11T02:40:29.043Z,26.27
2018-10-11T02:42:57.681Z,26.03
2018-10-11T02:45:26.248Z,28.47
2018-10-11T02:47:54.745Z,26.73
2018-10-11T02:50:23.262Z,23.90
2018-10-11T02:52:51.852Z,27.43
2018-10-11T02:55:25.800Z,27.43
2018-10-11T02:58:05.569Z,29.47
2018-10-11T03:00:35.308Z,23.13
2018-10-11T03:03:12.938Z,25.07
2018-10-11T03:05:44.068Z,25.83
2018-10-11T03:08:29.315Z,25.60
2018-10-11T03:10:58.308Z,24.17
2018-10-11T03:13:27.205Z,23.57
2018-10-11T03:15:55.786Z,27.77
2018-10-11T03:18:24.339Z,25.30
2018-10-11T03:20:53.019Z,28.23
2018-10-11T03:23:21.510Z,27.20
2018-10-11T03:25:50.067Z,28.20
2018-10-11T03:28:18.665Z,25.93
2018-10-11T03:30:47.163Z,24.40
2018-10-11T03:33:16.073Z,27.23
2018-10-11T03:35:45.164Z,23.33
2018-10-11T03:38:14.256Z,23.90
2018-10-11T03:40:43.132Z,23.73
2018-10-11T03:43:11.715Z,25.87
2018-10-11T03:45:40.272Z,26.70
2018-10-11T03:48:09.138Z,28.90
2018-10-11T03:50:37.685Z,30.43
2018-10-11T03:53:06.420Z,25.97
2018-10-11T03:55:35.301Z,27.13
2018-10-11T03:58:03.807Z,24.37
2018-10-11T04:00:32.358Z,22.03
2018-10-11T04:03:00.909Z,26.70
2018-10-11T04:05:29.589Z,24.73
2018-10-11T04:07:58.270Z,27.50
2018-10-11T04:10:26.924Z,32.10
2018-10-11T04:12:55.764Z,24.20
2018-10-11T04:15:24.798Z,27.20
2018-10-11T04:17:53.565Z,25.37
2018-10-11T04:20:22.174Z,25.30
2018-10-11T04:22:50.685Z,25.97
2018-10-11T04:25:19.288Z,25.23
2018-10-11T04:27:48.158Z,24.80
2018-10-11T04:30:16.698Z,25.60
2018-10-11T04:32:45.708Z,25.70
2018-10-11T04:35:14.236Z,27.67
2018-10-11T04:37:42.879Z,25.90
2018-10-11T04:40:11.429Z,27.03
2018-10-11T04:42:40.992Z,23.47
2018-10-11T04:45:09.741Z,29.90
2018-10-11T04:47:38.386Z,28.33
2018-10-11T04:50:06.864Z,27.80
2018-10-11T04:52:35.417Z,26.17
2018-10-11T04:55:04.220Z,26.30
2018-10-11T04:57:32.723Z,28.80
2018-10-11T05:00:01.484Z,27.50
2018-10-11T05:02:30.119Z,25.73
2018-10-11T05:04:58.669Z,31.73
2018-10-11T05:07:27.531Z,24.77
2018-10-11T05:09:56.057Z,29.57
2018-10-11T05:12:24.841Z,29.10
2018-10-11T05:14:53.855Z,30.03
2018-10-11T05:17:22.396Z,27.83
2018-10-11T05:19:51.140Z,30.13
2018-10-11T05:22:19.727Z,38.70
2018-10-11T05:24:48.614Z,35.93
2018-10-11T05:27:17.277Z,30.07
2018-10-11T05:29:45.937Z,30.23
2018-10-11T05:32:14.913Z,28.47
2018-10-11T05:34:43.499Z,29.20
2018-10-11T05:37:12.139Z,36.27
2018-10-11T05:39:40.633Z,29.80
2018-10-11T05:42:09.171Z,30.77
2018-10-11T05:44:37.767Z,33.93
2018-10-11T05:47:06.786Z,32.93
2018-10-11T05:49:35.289Z,36.60
2018-10-11T05:52:04.064Z,29.07
2018-10-11T05:54:32.613Z,35.70
2018-10-11T05:57:01.150Z,33.57
2018-10-11T05:59:29.860Z,32.20
2018-10-11T06:01:58.397Z,27.37
2018-10-11T06:04:27.332Z,29.77
2018-10-11T06:06:55.908Z,32.33
2018-10-11T06:09:24.768Z,32.27
2018-10-11T06:11:53.484Z,32.07
2018-10-11T06:14:22.033Z,32.53
2018-10-11T06:16:50.849Z,30.10
2018-10-11T06:19:19.694Z,32.97
2018-10-11T06:21:48.313Z,29.67
2018-10-11T06:24:17.051Z,32.50
2018-10-11T06:26:45.864Z,30.20
2018-10-11T06:29:14.371Z,35.03
2018-10-11T06:31:43.253Z,29.77
2018-10-11T06:34:11.853Z,31.67
2018-10-11T06:36:41.400Z,37.50
2018-10-11T06:39:10.785Z,44.50
2018-10-11T06:41:39.378Z,43.40
2018-10-11T06:44:08.712Z,38.90
2018-10-11T06:46:37.655Z,34.30
2018-10-11T06:49:07.245Z,35.13
2018-10-11T06:51:35.783Z,32.80
2018-10-11T06:54:04.273Z,29.87
2018-10-11T06:56:32.828Z,32.50
2018-10-11T06:59:01.420Z,35.60
2018-10-11T07:01:30.314Z,34.97
2018-10-11T07:03:58.864Z,38.80
2018-10-11T07:06:27.743Z,31.93
2018-10-11T07:08:56.469Z,33.27
2018-10-11T07:11:25.237Z,34.10
2018-10-11T07:13:53.837Z,29.50
2018-10-11T07:16:22.466Z,28.17
2018-10-11T07:18:51.598Z,30.00
2018-10-11T07:21:20.492Z,32.43
2018-10-11T07:23:49.095Z,31.10
2018-10-11T07:26:18.012Z,44.43
2018-10-11T07:28:46.652Z,29.20
2018-10-11T07:31:15.443Z,30.90
2018-10-11T07:33:44.287Z,36.73
2018-10-11T07:36:12.879Z,31.73
2018-10-11T07:38:41.557Z,33.47
2018-10-11T07:41:10.415Z,35.23
2018-10-11T07:43:39.103Z,49.07
2018-10-11T07:46:07.951Z,54.03
2018-10-11T07:48:36.794Z,52.80
2018-10-11T07:51:05.665Z,59.93
2018-10-11T07:53:34.287Z,80.53
2018-10-11T07:56:03.195Z,72.33
2018-10-11T07:58:31.985Z,68.87
2018-10-11T08:01:00.559Z,75.60
2018-10-11T08:03:29.554Z,84.83
2018-10-11T08:05:58.394Z,75.53
2018-10-11T08:08:27.119Z,81.90
2018-10-11T08:10:56.284Z,81.87
2018-10-11T08:13:25.290Z,82.70
2018-10-11T08:15:54.182Z,68.90
2018-10-11T08:18:22.825Z,71.67
2018-10-11T08:20:51.629Z,61.90
2018-10-11T08:23:21.146Z,59.00
2018-10-11T08:25:50.311Z,52.83
2018-10-11T08:28:18.602Z,49.57
2018-10-11T08:30:47.576Z,39.87
2018-10-11T08:33:16.211Z,39.63
2018-10-11T08:35:44.675Z,33.77
2018-10-11T08:38:13.552Z,35.33
2018-10-11T08:40:41.926Z,38.10
2018-10-11T08:43:10.516Z,38.83
2018-10-11T08:45:39.755Z,41.10
2018-10-11T08:48:08.786Z,32.20
2018-10-11T08:50:37.421Z,27.77
2018-10-11T08:53:06.659Z,27.00
2018-10-11T08:55:35.479Z,23.27
2018-10-11T08:58:04.203Z,26.37
2018-10-11T09:00:32.966Z,23.27
2018-10-11T09:03:01.932Z,17.77
2018-10-11T09:05:30.560Z,18.37
2018-10-11T09:07:59.790Z,18.97
2018-10-11T09:10:38.109Z,16.07
2018-10-11T09:12:58.084Z,12.73
2018-10-11T09:15:27.109Z,15.17
2018-10-11T09:17:55.870Z,14.50
2018-10-11T09:20:24.663Z,10.30
2018-10-11T09:22:53.488Z,12.90
2018-10-11T09:25:22.099Z,10.85
2018-10-11T09:27:50.976Z,13.50
2018-10-11T09:30:19.773Z,10.28
2018-10-11T09:32:48.879Z,11.20
2018-10-11T09:35:18.155Z,9.98
2018-10-11T09:37:47.002Z,9.58
2018-10-11T09:40:15.755Z,10.03
2018-10-11T09:42:45.034Z,17.32
2018-10-11T09:45:13.710Z,12.60
2018-10-11T09:47:42.423Z,12.23
2018-10-11T09:50:11.197Z,9.75
2018-10-11T09:52:39.915Z,9.03
2018-10-11T09:55:08.736Z,12.33
2018-10-11T09:57:38.481Z,9.95
2018-10-11T10:00:14.627Z,10.50
2018-10-11T10:02:43.321Z,10.63
2018-10-11T10:05:12.153Z,9.30
2018-10-11T10:07:41.023Z,14.85
2018-10-11T10:10:10.067Z,11.93
2018-10-11T10:12:38.837Z,11.88
2018-10-11T10:15:07.727Z,10.68
2018-10-11T10:17:37.194Z,9.43
2018-10-11T10:20:06.441Z,15.80
2018-10-11T10:22:35.101Z,12.88
2018-10-11T10:25:03.751Z,12.85
2018-10-11T10:27:32.487Z,12.40
2018-10-11T10:30:05.333Z,11.12
2018-10-11T10:32:33.999Z,13.22
2018-10-11T10:35:02.612Z,10.05
2018-10-11T10:37:31.495Z,10.55
2018-10-11T10:40:00.295Z,10.48
2018-10-11T10:42:28.813Z,13.10
2018-10-11T10:44:57.429Z,13.90
2018-10-11T10:47:26.108Z,13.32
2018-10-11T10:49:54.901Z,11.05
2018-10-11T10:52:23.465Z,11.00
2018-10-11T10:54:52.328Z,10.55
2018-10-11T10:57:21.509Z,11.65
2018-10-11T10:59:50.664Z,11.08
2018-10-11T11:02:19.400Z,10.60
2018-10-11T11:04:48.228Z,9.65
2018-10-11T11:07:16.908Z,9.68
2018-10-11T11:09:45.511Z,8.63
2018-10-11T11:12:14.397Z,11.10
2018-10-11T11:14:42.972Z,8.68
2018-10-11T11:17:11.716Z,10.40
2018-10-11T11:19:40.337Z,9.10
2018-10-11T11:22:08.950Z,10.05
2018-10-11T11:24:38.282Z,9.83
2018-10-11T11:27:07.005Z,10.80
2018-10-11T11:29:35.764Z,8.98
2018-10-11T11:32:04.530Z,10.93
2018-10-11T11:34:33.133Z,9.55
2018-10-11T11:37:01.829Z,10.72
2018-10-11T11:39:30.601Z,8.65
2018-10-11T11:41:59.443Z,8.03
2018-10-11T11:44:28.232Z,11.40
2018-10-11T11:46:57.316Z,11.15
2018-10-11T11:49:25.928Z,14.70
2018-10-11T11:51:54.823Z,10.18
2018-10-11T11:54:23.518Z,8.63
2018-10-11T11:56:52.933Z,8.93
2018-10-11T11:59:21.770Z,8.75
2018-10-11T12:01:50.822Z,8.88
2018-10-11T12:04:19.774Z,9.08
2018-10-11T12:06:48.645Z,11.10
2018-10-11T12:09:17.499Z,7.60
2018-10-11T12:11:46.684Z,7.65
2018-10-11T12:14:15.685Z,6.85
2018-10-11T12:16:44.433Z,9.88
2018-10-11T12:19:13.154Z,9.85
2018-10-11T12:21:41.747Z,6.50
2018-10-11T12:24:10.563Z,6.40
2018-10-11T12:26:39.280Z,7.00
2018-10-11T12:29:08.533Z,11.80
2018-10-11T12:31:37.108Z,6.75
2018-10-11T12:34:05.887Z,6.22
2018-10-11T12:36:34.749Z,6.22
2018-10-11T12:39:04.731Z,5.78
2018-10-11T12:41:33.298Z,5.78
2018-10-11T12:44:02.260Z,6.08
2018-10-11T12:46:32.521Z,6.30
2018-10-11T12:49:00.013Z,6.65
2018-10-11T12:51:28.921Z,5.78
2018-10-11T12:53:57.496Z,6.30
2018-10-11T12:56:26.441Z,6.35
2018-10-11T12:58:55.210Z,6.00
2018-10-11T13:01:24.258Z,6.60
2018-10-11T13:03:52.733Z,6.15
2018-10-11T13:06:21.940Z,8.88
2018-10-11T13:08:51.069Z,6.15
2018-10-11T13:11:19.990Z,5.65
2018-10-11T13:13:52.019Z,7.62
2018-10-11T13:16:17.570Z,6.28
2018-10-11T13:18:46.523Z,6.12
2018-10-11T13:21:15.428Z,6.53
2018-10-11T13:23:44.399Z,8.85
2018-10-11T13:26:13.337Z,8.78
2018-10-11T13:28:42.284Z,6.12
2018-10-11T13:31:11.163Z,6.75
2018-10-11T13:33:40.152Z,8.08
2018-10-11T13:36:13.003Z,6.33
2018-10-11T13:38:42.145Z,5.80
2018-10-11T13:41:11.360Z,8.75
2018-10-11T13:43:39.853Z,6.50
2018-10-11T13:46:09.173Z,7.50
2018-10-11T13:48:38.247Z,9.48
2018-10-11T13:51:07.326Z,8.03
2018-10-11T13:53:36.646Z,8.73
2018-10-11T13:56:05.580Z,7.17
2018-10-11T13:58:34.399Z,9.08
2018-10-11T14:01:03.177Z,7.35
2018-10-11T14:03:32.010Z,6.70
2018-10-11T14:06:00.981Z,6.20
2018-10-11T14:08:29.823Z,6.30
2018-10-11T14:10:58.498Z,6.25
2018-10-11T14:13:27.386Z,7.58
2018-10-11T14:15:56.557Z,6.47
2018-10-11T14:18:25.299Z,7.50
2018-10-11T14:20:54.628Z,6.95
2018-10-11T14:23:23.646Z,7.47
2018-10-11T14:25:53.006Z,6.17
2018-10-11T14:28:22.127Z,6.55
2018-10-11T14:30:51.216Z,5.85
2018-10-11T14:33:20.512Z,7.67
2018-10-11T14:35:49.728Z,6.25
2018-10-11T14:38:18.685Z,6.00
2018-10-11T14:40:47.712Z,6.78
2018-10-11T14:43:17.157Z,8.75
2018-10-11T14:45:46.429Z,7.67
2018-10-11T14:48:16.391Z,7.40
2018-10-11T14:50:45.532Z,8.05
2018-10-11T14:53:14.560Z,8.70
2018-10-11T14:55:43.402Z,10.50
2018-10-11T14:58:12.018Z,8.73
2018-10-11T15:00:40.828Z,9.15
2018-10-11T15:03:09.752Z,14.33
2018-10-11T15:05:38.724Z,8.48
2018-10-11T15:08:07.599Z,10.40
2018-10-11T15:10:36.258Z,8.83
2018-10-11T15:13:05.180Z,8.58
2018-10-11T15:15:34.296Z,9.40
2018-10-11T15:18:03.110Z,9.60
2018-10-11T15:20:32.076Z,11.08
2018-10-11T15:23:01.189Z,9.60
2018-10-11T15:25:30.173Z,11.45
2018-10-11T15:27:58.966Z,10.10
2018-10-11T15:30:27.941Z,9.70
2018-10-11T15:32:56.765Z,11.45
2018-10-11T15:35:25.776Z,12.45
2018-10-11T15:37:54.681Z,10.90
2018-10-11T15:40:23.931Z,12.53
2018-10-11T15:42:52.973Z,10.80
2018-10-11T15:45:22.085Z,11.33
2018-10-11T15:47:50.685Z,11.43
2018-10-11T15:50:19.454Z,12.28
2018-10-11T15:52:48.346Z,13.00
2018-10-11T15:55:17.173Z,15.13
2018-10-11T15:57:46.124Z,10.72
2018-10-11T16:00:14.716Z,12.13
2018-10-11T16:02:43.648Z,11.18
2018-10-11T16:05:12.604Z,13.27
2018-10-11T16:07:41.232Z,13.70
2018-10-11T16:10:10.164Z,18.40
2018-10-11T16:12:38.790Z,12.33
2018-10-11T16:15:07.409Z,11.00
2018-10-11T16:17:36.535Z,12.07
2018-10-11T16:20:05.293Z,12.67
2018-10-11T16:22:33.930Z,12.17
2018-10-11T16:25:02.641Z,13.10
2018-10-11T16:27:31.914Z,10.60
2018-10-11T16:30:00.579Z,10.90
2018-10-11T16:32:29.478Z,13.27
2018-10-11T16:34:58.472Z,12.87
2018-10-11T16:37:27.408Z,10.80
2018-10-11T16:39:56.303Z,11.00
2018-10-11T16:42:25.393Z,11.87
2018-10-11T16:44:54.293Z,12.00
2018-10-11T16:47:23.109Z,13.47
2018-10-11T16:49:52.062Z,11.40
2018-10-11T16:52:21.103Z,14.40
2018-10-11T16:54:50.066Z,15.67
2018-10-11T16:57:19.380Z,11.67
2018-10-11T16:59:48.456Z,11.30
2018-10-11T17:02:17.082Z,14.00
2018-10-11T17:04:45.974Z,12.87
2018-10-11T17:07:14.914Z,13.60
2018-10-11T17:09:43.755Z,12.53
2018-10-11T17:12:12.576Z,11.37
2018-10-11T17:14:41.557Z,11.63
2018-10-11T17:17:10.399Z,13.10
2018-10-11T17:19:39.012Z,14.63
2018-10-11T17:22:07.979Z,11.13
2018-10-11T17:24:36.704Z,10.57
2018-10-11T17:27:05.474Z,12.37
2018-10-11T17:29:34.546Z,10.50
2018-10-11T17:32:03.451Z,10.40
2018-10-11T17:34:32.473Z,10.73
2018-10-11T17:37:01.107Z,12.00
2018-10-11T17:39:30.373Z,11.50
2018-10-11T17:41:59.444Z,10.57
2018-10-11T17:44:28.374Z,11.43
2018-10-11T17:46:57.499Z,9.50
2018-10-11T17:49:26.813Z,10.00
2018-10-11T17:51:55.744Z,14.33
2018-10-11T17:54:24.720Z,11.97
2018-10-11T17:56:54.034Z,11.33
2018-10-11T17:59:22.974Z,11.97
2018-10-11T18:01:51.983Z,10.87
2018-10-11T18:04:20.764Z,11.83
2018-10-11T18:06:49.658Z,10.27
2018-10-11T18:09:18.816Z,13.13
2018-10-11T18:11:47.763Z,9.93
2018-10-11T18:14:16.688Z,11.50
2018-10-11T18:16:46.243Z,10.47
2018-10-11T18:19:15.320Z,10.37
2018-10-11T18:21:44.426Z,10.70
2018-10-11T18:24:13.605Z,15.23
2018-10-11T18:26:42.368Z,12.23
2018-10-11T18:29:11.353Z,11.13
2018-10-11T18:31:40.274Z,16.30
2018-10-11T18:34:09.318Z,10.97
2018-10-11T18:36:38.291Z,9.90
2018-10-11T18:39:14.216Z,8.97
2018-10-11T18:41:43.360Z,10.37
2018-10-11T18:44:12.801Z,10.00
2018-10-11T18:46:41.755Z,10.47
2018-10-11T18:49:10.899Z,11.20
2018-10-11T18:51:40.031Z,12.37
2018-10-11T18:54:09.241Z,13.10
2018-10-11T18:56:38.247Z,10.87
2018-10-11T18:59:07.217Z,10.33
2018-10-11T19:01:36.111Z,9.70
2018-10-11T19:04:05.185Z,10.47
2018-10-11T19:06:33.982Z,11.73
2018-10-11T19:09:03.063Z,14.47
2018-10-11T19:11:31.850Z,10.60
2018-10-11T19:14:00.795Z,9.17
2018-10-11T19:16:30.212Z,10.20
2018-10-11T19:18:59.394Z,11.03
2018-10-11T19:21:28.925Z,12.07
2018-10-11T19:23:57.906Z,10.03
2018-10-11T19:26:27.258Z,10.80
2018-10-11T19:28:56.271Z,13.57
2018-10-11T19:31:25.511Z,13.00
2018-10-11T19:33:54.575Z,11.10
2018-10-11T19:36:23.183Z,9.60
2018-10-11T19:38:52.220Z,9.70
2018-10-11T19:41:21.015Z,11.20
2018-10-11T19:43:50.123Z,11.20
2018-10-11T19:46:18.967Z,11.23
2018-10-11T19:48:48.050Z,10.30
2018-10-11T19:51:17.191Z,13.80
2018-10-11T19:53:46.039Z,11.67
2018-10-11T19:56:14.967Z,11.60
2018-10-11T19:58:43.961Z,10.83
2018-10-11T20:01:12.996Z,12.63
2018-10-11T20:03:42.150Z,10.87
2018-10-11T20:06:11.366Z,12.47
2018-10-11T20:08:40.223Z,12.27
2018-10-11T20:11:08.937Z,11.53
2018-10-11T20:13:37.457Z,13.17
2018-10-11T20:16:06.555Z,11.23
2018-10-11T20:18:35.603Z,13.70
2018-10-11T20:21:04.273Z,11.33
2018-10-11T20:23:33.186Z,12.30
2018-10-11T20:26:02.245Z,12.93
2018-10-11T20:28:31.253Z,12.07
2018-10-11T20:31:00.050Z,12.40
2018-10-11T20:33:28.809Z,11.77
2018-10-11T20:35:57.479Z,11.03
2018-10-11T20:38:26.903Z,12.33
2018-10-11T20:40:55.955Z,15.53
2018-10-11T20:43:24.747Z,16.70
2018-10-11T20:45:53.568Z,14.03
2018-10-11T20:48:22.237Z,12.50
2018-10-11T20:50:51.080Z,12.23
2018-10-11T20:53:20.137Z,11.43
2018-10-11T20:55:48.952Z,11.97
2018-10-11T20:58:17.740Z,15.30
2018-10-11T21:00:46.622Z,13.47
2018-10-11T21:03:15.612Z,12.50
2018-10-11T21:05:44.180Z,16.90
2018-10-11T21:08:13.206Z,13.43
2018-10-11T21:10:42.169Z,15.00
2018-10-11T21:13:10.824Z,14.33
2018-10-11T21:15:39.381Z,13.17
2018-10-11T21:18:08.235Z,13.33
2018-10-11T21:20:37.065Z,13.27
2018-10-11T21:23:05.663Z,14.37
2018-10-11T21:25:34.385Z,14.50
2018-10-11T21:28:03.024Z,14.97
2018-10-11T21:30:31.801Z,12.77
2018-10-11T21:33:00.334Z,14.67
2018-10-11T21:35:28.880Z,15.30
2018-10-11T21:37:57.522Z,16.17
2018-10-11T21:40:26.330Z,18.20
2018-10-11T21:42:54.897Z,14.83
2018-10-11T21:45:23.808Z,16.70
2018-10-11T21:47:52.561Z,15.40
2018-10-11T21:50:21.152Z,14.67
2018-10-11T21:52:50.094Z,16.07
2018-10-11T21:55:18.850Z,16.00
2018-10-11T21:57:48.061Z,15.33
2018-10-11T22:00:16.663Z,13.50
2018-10-11T22:02:45.574Z,13.30
2018-10-11T22:05:14.439Z,14.07
2018-10-11T22:07:43.049Z,16.83
2018-10-11T22:10:12.146Z,17.20
2018-10-11T22:12:41.018Z,16.90
2018-10-11T22:15:10.082Z,17.87
2018-10-11T22:17:38.493Z,14.27
2018-10-11T22:20:07.041Z,15.60
2018-10-11T22:22:35.536Z,17.10
2018-10-11T22:25:04.269Z,15.77
2018-10-11T22:27:32.792Z,15.83
2018-10-11T22:30:01.413Z,16.30
2018-10-11T22:32:29.938Z,17.73
2018-10-11T22:34:58.434Z,14.57
2018-10-11T22:37:26.971Z,14.07
2018-10-11T22:39:55.672Z,18.80
2018-10-11T22:42:24.438Z,17.50
2018-10-11T22:44:53.377Z,14.33
2018-10-11T22:47:22.151Z,18.33
2018-10-11T22:49:50.763Z,14.70
2018-10-11T22:52:19.316Z,15.27
2018-10-11T22:54:48.085Z,16.43
2018-10-11T22:57:16.642Z,17.50
2018-10-11T22:59:45.171Z,15.97
2018-10-11T23:02:13.743Z,16.97
2018-10-11T23:04:42.278Z,15.33
2018-10-11T23:07:11.367Z,18.50
2018-10-11T23:09:40.378Z,17.53
2018-10-11T23:12:09.056Z,16.10
2018-10-11T23:14:37.878Z,15.10
2018-10-11T23:17:06.834Z,15.90
2018-10-11T23:19:35.361Z,19.43
2018-10-11T23:22:04.044Z,15.37
2018-10-11T23:24:32.579Z,20.27
2018-10-11T23:27:01.287Z,17.90
2018-10-11T23:29:30.102Z,19.40
2018-10-11T23:31:58.790Z,17.27
2018-10-11T23:34:27.556Z,16.13
2018-10-11T23:36:56.149Z,15.40
2018-10-11T23:39:24.907Z,17.20
2018-10-11T23:41:53.465Z,15.53
2018-10-11T23:44:22.026Z,18.13
2018-10-11T23:46:50.589Z,17.97
2018-10-11T23:49:19.156Z,18.40
2018-10-11T23:51:47.800Z,17.30
2018-10-11T23:54:16.305Z,15.67
2018-10-11T23:56:44.844Z,20.80
2018-10-11T23:59:13.625Z,17.43
